createdAt,value
2024-04-18T00:00:14.334Z,86.22
2024-04-18T00:01:22.212Z,86.21
2024-04-18T00:02:27.450Z,85.53
2024-04-18T00:03:31.762Z,85.65
2024-04-18T00:04:43.487Z,86.01
2024-04-18T00:05:45.892Z,86.39
2024-04-18T00:06:48.353Z,86.45
2024-04-18T00:07:52.022Z,86.70
2024-04-18T00:08:54.537Z,86.83
2024-04-18T00:10:03.949Z,86.87
2024-04-18T00:11:12.786Z,87.20
2024-04-18T00:12:16.059Z,86.40
2024-04-18T00:13:22.984Z,86.46
2024-04-18T00:14:45.851Z,86.29
2024-04-18T00:15:56.920Z,86.28
2024-04-18T00:17:10.748Z,86.17
2024-04-18T00:18:13.673Z,86.04
2024-04-18T00:19:21.701Z,85.66
2024-04-18T00:20:42.750Z,86.11
2024-04-18T00:21:58.281Z,86.37
2024-04-18T00:23:03.465Z,87.31
2024-04-18T00:24:06.650Z,86.97
2024-04-18T00:25:27.049Z,87.52
2024-04-18T00:26:29.629Z,87.42
2024-04-18T00:27:38.114Z,88.07
2024-04-18T00:28:40.594Z,87.88
2024-04-18T00:29:54.783Z,87.71
2024-04-18T00:30:57.509Z,88.00
2024-04-18T00:32:01.806Z,87.69
2024-04-18T00:33:13.588Z,87.71
2024-04-18T00:34:17.015Z,87.55
2024-04-18T00:35:26.306Z,87.62
2024-04-18T00:36:52.847Z,87.56
2024-04-18T00:38:01.517Z,87.87
2024-04-18T00:39:16.314Z,87.75
2024-04-18T00:40:33.925Z,87.86
2024-04-18T00:41:58.217Z,88.10
2024-04-18T00:43:08.629Z,87.75
2024-04-18T00:44:17.337Z,87.73
2024-04-18T00:45:24.211Z,87.16
2024-04-18T00:46:28.471Z,87.29
2024-04-18T00:47:39.227Z,87.84
2024-04-18T00:48:45.305Z,87.83
2024-04-18T00:49:48.082Z,87.81
2024-04-18T00:50:52.544Z,87.97
2024-04-18T00:52:01.176Z,88.13
2024-04-18T00:53:04.631Z,88.21
2024-04-18T00:54:08.069Z,88.17
2024-04-18T00:55:11.726Z,87.99
2024-04-18T00:56:32.417Z,88.60
2024-04-18T00:57:55.277Z,88.45
2024-04-18T00:59:18.197Z,88.16
2024-04-18T01:00:42.699Z,88.42
2024-04-18T01:02:04.162Z,88.32
2024-04-18T01:03:15.440Z,88.42
2024-04-18T01:04:18.128Z,88.33
2024-04-18T01:05:43.801Z,87.86
2024-04-18T01:06:56.314Z,88.23
2024-04-18T01:08:03.519Z,88.11
2024-04-18T01:09:26.166Z,87.87
2024-04-18T01:10:46.823Z,87.86
2024-04-18T01:11:49.266Z,87.83
2024-04-18T01:13:02.315Z,87.99
2024-04-18T01:14:24.750Z,88.04
2024-04-18T01:15:39.472Z,87.25
2024-04-18T01:16:41.986Z,87.40
2024-04-18T01:17:44.493Z,87.55
2024-04-18T01:18:46.949Z,87.58
2024-04-18T01:19:52.520Z,86.96
2024-04-18T01:20:55.378Z,87.38
2024-04-18T01:22:05.478Z,87.39
2024-04-18T01:23:09.509Z,87.08
2024-04-18T01:24:22.045Z,87.41
2024-04-18T01:25:44.534Z,86.95
2024-04-18T01:28:01.109Z,87.08
2024-04-18T01:29:05.367Z,86.72
2024-04-18T01:30:14.610Z,86.83
2024-04-18T01:31:19.104Z,86.89
2024-04-18T01:32:23.608Z,86.63
2024-04-18T01:33:28.570Z,86.47
2024-04-18T01:34:31.601Z,87.07
2024-04-18T01:35:52.279Z,86.35
2024-04-18T01:36:58.878Z,87.04
2024-04-18T01:38:05.319Z,86.80
2024-04-18T01:39:25.386Z,87.02
2024-04-18T01:40:42.357Z,86.72
2024-04-18T01:42:02.941Z,87.14
2024-04-18T01:43:17.449Z,86.96
2024-04-18T01:44:38.788Z,87.46
2024-04-18T01:46:00.040Z,87.77
2024-04-18T01:47:02.473Z,87.98
2024-04-18T01:48:08.199Z,87.46
2024-04-18T01:49:31.254Z,88.00
2024-04-18T01:50:33.650Z,88.12
2024-04-18T01:51:36.920Z,88.17
2024-04-18T01:52:59.790Z,88.33
2024-04-18T01:54:20.796Z,88.43
2024-04-18T01:55:36.833Z,88.69
2024-04-18T01:57:01.266Z,89.00
2024-04-18T01:58:24.857Z,88.96
2024-04-18T01:59:28.633Z,89.50
2024-04-18T02:00:32.066Z,89.22
2024-04-18T02:01:34.820Z,89.31
2024-04-18T02:02:38.757Z,89.47
2024-04-18T02:03:44.028Z,89.51
2024-04-18T02:04:49.597Z,89.69
2024-04-18T02:06:12.049Z,89.79
2024-04-18T02:07:24.724Z,89.21
2024-04-18T02:08:39.424Z,89.26
2024-04-18T02:09:55.824Z,89.37
2024-04-18T02:11:01.873Z,89.18
2024-04-18T02:12:28.675Z,89.36
2024-04-18T02:13:57.815Z,89.69
2024-04-18T02:15:01.360Z,89.36
2024-04-18T02:16:03.716Z,89.68
2024-04-18T02:17:25.454Z,89.75
2024-04-18T02:18:39.762Z,89.96
2024-04-18T02:19:48.296Z,90.22
2024-04-18T02:21:09.500Z,90.47
2024-04-18T02:22:26.144Z,90.50
2024-04-18T02:23:47.087Z,90.43
2024-04-18T02:25:10.183Z,90.62
2024-04-18T02:26:12.541Z,90.31
2024-04-18T02:27:17.049Z,90.46
2024-04-18T02:28:20.790Z,90.30
2024-04-18T02:29:46.064Z,90.64
2024-04-18T02:31:08.768Z,90.63
2024-04-18T02:32:25.723Z,90.24
2024-04-18T02:33:31.439Z,90.39
2024-04-18T02:34:53.134Z,90.41
2024-04-18T02:36:07.593Z,90.37
2024-04-18T02:37:18.335Z,90.02
2024-04-18T02:38:29.802Z,90.20
2024-04-18T02:39:32.346Z,90.23
2024-04-18T02:41:11.597Z,90.53
2024-04-18T02:42:37.403Z,90.51
2024-04-18T02:43:41.110Z,90.12
2024-04-18T02:44:43.414Z,89.90
2024-04-18T02:45:50.368Z,89.96
2024-04-18T02:47:21.625Z,89.77
2024-04-18T02:48:42.522Z,90.10
2024-04-18T02:50:14.837Z,89.92
2024-04-18T02:51:17.572Z,89.79
2024-04-18T02:52:27.492Z,89.63
2024-04-18T02:53:37.111Z,89.32
2024-04-18T02:54:42.088Z,89.43
2024-04-18T02:55:44.577Z,89.25
2024-04-18T02:57:06.512Z,89.26
2024-04-18T02:58:12.174Z,89.26
2024-04-18T02:59:17.690Z,88.86
2024-04-18T03:00:26.825Z,89.00
2024-04-18T03:01:44.654Z,88.87
2024-04-18T03:02:47.050Z,88.87
2024-04-18T03:03:52.584Z,88.82
2024-04-18T03:05:08.304Z,89.14
2024-04-18T03:06:10.974Z,88.56
2024-04-18T03:07:16.287Z,89.13
2024-04-18T03:08:28.852Z,89.42
2024-04-18T03:10:04.939Z,90.07
2024-04-18T03:11:27.679Z,90.03
2024-04-18T03:12:45.590Z,90.39
2024-04-18T03:14:02.923Z,90.18
2024-04-18T03:15:06.573Z,90.55
2024-04-18T03:16:18.938Z,90.50
2024-04-18T03:17:25.236Z,90.59
2024-04-18T03:18:46.063Z,90.64
2024-04-18T03:19:54.691Z,90.70
2024-04-18T03:21:03.430Z,90.92
2024-04-18T03:22:23.866Z,91.08
2024-04-18T03:23:33.420Z,90.88
2024-04-18T03:24:43.717Z,90.53
2024-04-18T03:26:06.497Z,90.87
2024-04-18T03:27:13.235Z,90.82
2024-04-18T03:28:18.592Z,90.76
2024-04-18T03:29:27.330Z,90.94
2024-04-18T03:30:32.630Z,90.62
2024-04-18T03:31:47.026Z,90.51
2024-04-18T03:32:51.976Z,90.45
2024-04-18T03:34:12.897Z,90.23
2024-04-18T03:35:28.365Z,90.32
2024-04-18T03:36:53.623Z,90.37
2024-04-18T03:38:06.206Z,90.30
2024-04-18T03:39:10.698Z,90.35
2024-04-18T03:40:13.032Z,89.97
2024-04-18T03:41:35.617Z,89.86
2024-04-18T03:42:53.050Z,89.46
2024-04-18T03:43:55.806Z,89.80
2024-04-18T03:44:58.830Z,89.53
2024-04-18T03:46:13.919Z,90.06
2024-04-18T03:47:42.222Z,90.70
2024-04-18T03:48:49.078Z,90.36
2024-04-18T03:49:52.545Z,90.10
2024-04-18T03:51:17.771Z,89.87
2024-04-18T03:52:39.952Z,90.11
2024-04-18T03:54:05.215Z,90.19
2024-04-18T03:55:28.441Z,89.77
2024-04-18T03:56:33.289Z,89.64
2024-04-18T03:57:52.414Z,89.87
2024-04-18T03:59:13.592Z,89.39
2024-04-18T04:00:19.731Z,89.51
2024-04-18T04:01:27.056Z,89.49
2024-04-18T04:02:33.652Z,89.73
2024-04-18T04:03:47.299Z,89.81
2024-04-18T04:04:52.304Z,89.65
2024-04-18T04:05:55.762Z,89.99
2024-04-18T04:07:07.479Z,89.74
2024-04-18T04:08:16.754Z,89.82
2024-04-18T04:09:19.140Z,89.88
2024-04-18T04:10:24.753Z,89.62
2024-04-18T04:11:27.481Z,90.12
2024-04-18T04:12:29.924Z,90.22
2024-04-18T04:13:45.856Z,90.11
2024-04-18T04:14:55.489Z,90.18
2024-04-18T04:15:58.460Z,90.06
2024-04-18T04:17:15.141Z,89.87
2024-04-18T04:18:18.156Z,90.02
2024-04-18T04:19:22.060Z,89.79
2024-04-18T04:20:29.502Z,90.22
2024-04-18T04:21:35.977Z,89.94
2024-04-18T04:22:44.019Z,89.91
2024-04-18T04:24:01.722Z,89.94
2024-04-18T04:25:31.634Z,90.38
2024-04-18T04:26:36.665Z,90.29
2024-04-18T04:27:43.125Z,90.37
2024-04-18T04:28:46.053Z,90.26
2024-04-18T04:29:48.330Z,90.33
2024-04-18T04:30:56.307Z,90.05
2024-04-18T04:31:58.774Z,90.32
2024-04-18T04:33:16.712Z,90.25
2024-04-18T04:34:39.007Z,90.22
2024-04-18T04:35:44.291Z,90.53
2024-04-18T04:36:47.156Z,90.02
2024-04-18T04:37:49.656Z,90.08
2024-04-18T04:38:52.253Z,90.20
2024-04-18T04:40:23.978Z,90.80
2024-04-18T04:41:27.439Z,91.15
2024-04-18T04:42:29.996Z,90.90
2024-04-18T04:43:32.474Z,91.14
2024-04-18T04:44:35.259Z,91.37
2024-04-18T04:45:39.802Z,91.13
2024-04-18T04:46:42.504Z,91.53
2024-04-18T04:47:56.714Z,91.41
2024-04-18T04:49:02.188Z,91.27
2024-04-18T04:50:15.143Z,91.25
2024-04-18T04:51:24.787Z,91.54
2024-04-18T04:52:43.278Z,91.75
2024-04-18T04:54:01.059Z,91.73
2024-04-18T04:55:25.197Z,91.68
2024-04-18T04:56:30.803Z,91.65
2024-04-18T04:57:53.169Z,91.85
2024-04-18T04:58:55.836Z,91.53
2024-04-18T05:00:03.678Z,92.19
2024-04-18T05:01:26.641Z,92.12
2024-04-18T05:02:32.607Z,91.80
2024-04-18T05:03:54.614Z,92.11
2024-04-18T05:05:06.111Z,91.75
2024-04-18T05:06:22.793Z,91.85
2024-04-18T05:08:03.655Z,92.56
2024-04-18T05:09:19.297Z,92.59
2024-04-18T05:10:27.589Z,92.72
2024-04-18T05:11:35.207Z,92.74
2024-04-18T05:12:47.685Z,93.02
2024-04-18T05:14:12.284Z,92.99
2024-04-18T05:15:41.459Z,92.88
2024-04-18T05:17:10.018Z,93.49
2024-04-18T05:18:12.838Z,93.27
2024-04-18T05:19:16.336Z,93.45
2024-04-18T05:20:21.358Z,93.60
2024-04-18T05:21:25.246Z,93.71
2024-04-18T05:22:53.986Z,94.28
2024-04-18T05:24:00.586Z,94.44
2024-04-18T05:25:02.856Z,94.42
2024-04-18T05:26:11.305Z,94.70
2024-04-18T05:27:15.193Z,95.06
2024-04-18T05:28:58.045Z,95.01
2024-04-18T05:30:21.127Z,95.23
2024-04-18T05:31:27.382Z,95.47
2024-04-18T05:32:33.338Z,95.76
2024-04-18T05:33:45.671Z,96.24
2024-04-18T05:34:49.224Z,95.83
2024-04-18T05:36:02.585Z,96.56
2024-04-18T05:37:13.555Z,96.19
2024-04-18T05:38:28.286Z,96.05
2024-04-18T05:39:41.483Z,96.57
2024-04-18T05:40:51.715Z,96.78
2024-04-18T05:41:55.086Z,97.94
2024-04-18T05:43:06.923Z,97.59
2024-04-18T05:44:23.405Z,97.24
2024-04-18T05:45:28.204Z,96.98
2024-04-18T05:46:47.654Z,97.35
2024-04-18T05:47:50.087Z,97.10
2024-04-18T05:48:53.928Z,96.86
2024-04-18T05:49:57.784Z,96.41
2024-04-18T05:51:00.921Z,96.52
2024-04-18T05:52:09.560Z,96.09
2024-04-18T05:53:16.609Z,95.95
2024-04-18T05:54:31.786Z,96.60
2024-04-18T05:55:46.058Z,96.45
2024-04-18T05:56:50.792Z,96.99
2024-04-18T05:57:57.778Z,96.89
2024-04-18T05:59:18.641Z,97.50
2024-04-18T06:00:28.927Z,97.65
2024-04-18T06:01:33.525Z,97.74
2024-04-18T06:02:39.925Z,98.10
2024-04-18T06:03:42.360Z,98.23
2024-04-18T06:04:44.847Z,98.61
2024-04-18T06:06:10.167Z,99.71
2024-04-18T06:07:23.973Z,100.00
2024-04-18T06:08:27.219Z,100.00
2024-04-18T06:09:30.467Z,100.00
2024-04-18T06:10:32.907Z,99.75
2024-04-18T06:11:53.129Z,98.53
2024-04-18T06:12:55.807Z,99.03
2024-04-18T06:13:58.129Z,99.00
2024-04-18T06:15:00.707Z,98.45
2024-04-18T06:16:03.169Z,97.79
2024-04-18T06:17:24.472Z,98.72
2024-04-18T06:18:30.812Z,98.19
2024-04-18T06:19:33.232Z,98.03
2024-04-18T06:20:55.888Z,97.07
2024-04-18T06:21:58.243Z,96.74
2024-04-18T06:23:00.825Z,96.79
2024-04-18T06:24:03.237Z,96.18
2024-04-18T06:25:05.914Z,95.76
2024-04-18T06:26:08.287Z,95.63
2024-04-18T06:27:10.986Z,95.70
2024-04-18T06:28:14.863Z,95.80
2024-04-18T06:29:17.293Z,96.29
2024-04-18T06:30:20.061Z,96.10
2024-04-18T06:31:23.971Z,96.52
2024-04-18T06:32:26.724Z,96.46
2024-04-18T06:33:31.375Z,96.33
2024-04-18T06:34:34.735Z,96.34
2024-04-18T06:35:37.147Z,96.07
2024-04-18T06:36:39.947Z,96.26
2024-04-18T06:37:42.335Z,96.12
2024-04-18T06:38:44.752Z,95.39
2024-04-18T06:39:47.339Z,95.46
2024-04-18T06:40:49.925Z,95.33
2024-04-18T06:41:53.810Z,95.07
2024-04-18T06:42:56.738Z,94.94
2024-04-18T06:43:59.519Z,95.23
2024-04-18T06:45:02.197Z,94.64
2024-04-18T06:46:04.971Z,95.08
2024-04-18T06:47:07.825Z,94.77
2024-04-18T06:48:10.998Z,94.48
2024-04-18T06:49:13.344Z,94.30
2024-04-18T06:50:17.351Z,94.54
2024-04-18T06:51:19.967Z,94.29
2024-04-18T06:52:22.527Z,94.42
2024-04-18T06:53:24.824Z,94.03
2024-04-18T06:54:27.923Z,94.15
2024-04-18T06:55:30.621Z,94.15
2024-04-18T06:56:32.978Z,94.03
2024-04-18T06:57:35.792Z,94.12
2024-04-18T06:58:38.165Z,93.69
2024-04-18T06:59:40.921Z,93.56
2024-04-18T07:00:43.457Z,93.11
2024-04-18T07:01:46.708Z,93.42
2024-04-18T07:02:49.102Z,93.19
2024-04-18T07:04:10.162Z,92.85
2024-04-18T07:05:12.827Z,92.74
2024-04-18T07:06:24.668Z,92.22
2024-04-18T07:07:37.658Z,92.15
2024-04-18T07:09:00.388Z,92.26
2024-04-18T07:10:18.199Z,92.15
2024-04-18T07:11:29.570Z,91.93
2024-04-18T07:12:32.141Z,91.45
2024-04-18T07:13:54.918Z,91.61
2024-04-18T07:15:07.011Z,91.30
2024-04-18T07:16:18.575Z,91.06
2024-04-18T07:17:30.037Z,90.78
2024-04-18T07:18:41.908Z,90.51
2024-04-18T07:19:44.743Z,90.78
2024-04-18T07:21:07.091Z,90.26
2024-04-18T07:22:12.630Z,90.11
2024-04-18T07:23:30.764Z,89.75
2024-04-18T07:24:38.818Z,89.69
2024-04-18T07:25:41.629Z,89.56
2024-04-18T07:27:02.855Z,89.32
2024-04-18T07:28:06.027Z,89.28
2024-04-18T07:29:08.398Z,89.03
2024-04-18T07:30:11.258Z,89.02
2024-04-18T07:31:22.662Z,89.03
2024-04-18T07:32:45.842Z,88.62
2024-04-18T07:33:49.557Z,88.62
2024-04-18T07:34:52.252Z,88.59
2024-04-18T07:35:55.838Z,88.20
2024-04-18T07:37:01.580Z,88.14
2024-04-18T07:38:04.009Z,88.52
2024-04-18T07:39:06.720Z,88.02
2024-04-18T07:40:20.082Z,88.11
2024-04-18T07:41:22.615Z,87.90
2024-04-18T07:42:25.481Z,87.48
2024-04-18T07:43:27.829Z,87.30
2024-04-18T07:44:30.509Z,86.88
2024-04-18T07:45:33.173Z,86.67
2024-04-18T07:46:35.832Z,86.58
2024-04-18T07:47:40.192Z,86.38
2024-04-18T07:48:43.072Z,85.92
2024-04-18T07:49:49.269Z,86.50
2024-04-18T07:50:52.741Z,86.09
2024-04-18T07:51:57.471Z,85.96
2024-04-18T07:53:07.970Z,85.85
2024-04-18T07:54:12.606Z,85.67
2024-04-18T07:55:16.091Z,85.18
2024-04-18T07:56:20.050Z,85.41
2024-04-18T07:57:25.414Z,85.11
2024-04-18T07:58:29.500Z,84.81
2024-04-18T07:59:33.078Z,84.51
2024-04-18T08:00:37.075Z,84.49
2024-04-18T08:01:43.110Z,84.57
2024-04-18T08:02:49.206Z,83.98
2024-04-18T08:04:07.518Z,81.50
2024-04-18T08:05:17.434Z,82.65
2024-04-18T08:06:25.281Z,82.55
2024-04-18T08:07:32.644Z,81.30
2024-04-18T08:08:39.460Z,81.17
2024-04-18T08:09:46.556Z,81.08
2024-04-18T08:11:08.420Z,81.02
2024-04-18T08:13:22.314Z,79.78
2024-04-18T08:14:30.587Z,80.18
2024-04-18T08:16:47.124Z,80.33
2024-04-18T08:17:50.880Z,80.25
2024-04-18T08:18:53.285Z,79.50
2024-04-18T08:19:56.939Z,78.81
2024-04-18T08:21:00.949Z,78.75
2024-04-18T08:22:04.672Z,79.04
2024-04-18T08:23:07.904Z,78.55
2024-04-18T08:24:20.523Z,77.91
2024-04-18T08:25:22.928Z,77.46
2024-04-18T08:26:25.793Z,77.08
2024-04-18T08:27:28.463Z,76.69
2024-04-18T08:28:31.629Z,76.49
2024-04-18T08:29:34.592Z,77.21
2024-04-18T08:30:37.117Z,77.02
2024-04-18T08:31:40.992Z,77.69
2024-04-18T08:32:43.465Z,77.30
2024-04-18T08:33:57.741Z,76.77
2024-04-18T08:35:07.358Z,76.06
2024-04-18T08:36:09.792Z,75.10
2024-04-18T08:37:12.443Z,75.36
2024-04-18T08:38:16.230Z,74.73
2024-04-18T08:39:19.837Z,73.87
2024-04-18T08:40:23.283Z,74.50
2024-04-18T08:41:26.398Z,73.69
2024-04-18T08:42:30.130Z,73.64
2024-04-18T08:43:32.638Z,73.40
2024-04-18T08:44:35.615Z,73.62
2024-04-18T08:45:40.571Z,74.36
2024-04-18T08:46:46.267Z,74.14
2024-04-18T08:47:50.058Z,74.16
2024-04-18T08:48:53.394Z,73.66
2024-04-18T08:49:57.062Z,73.78
2024-04-18T08:51:03.137Z,73.19
2024-04-18T08:52:08.056Z,73.40
2024-04-18T08:53:13.003Z,73.74
2024-04-18T08:54:16.043Z,73.59
2024-04-18T08:55:18.736Z,72.39
2024-04-18T08:56:25.793Z,72.10
2024-04-18T08:57:29.785Z,71.07
2024-04-18T08:58:32.967Z,72.12
2024-04-18T08:59:35.982Z,72.59
2024-04-18T09:00:45.328Z,72.64
2024-04-18T09:01:48.790Z,72.93
2024-04-18T09:02:54.649Z,71.36
2024-04-18T09:03:59.608Z,71.69
2024-04-18T09:05:02.462Z,72.77
2024-04-18T09:06:06.526Z,72.51
2024-04-18T09:07:08.942Z,72.76
2024-04-18T09:08:14.140Z,72.66
2024-04-18T09:09:20.099Z,72.98
2024-04-18T09:10:24.770Z,71.27
2024-04-18T09:11:27.189Z,72.33
2024-04-18T09:12:30.550Z,73.22
2024-04-18T09:13:32.961Z,72.90
2024-04-18T09:14:36.043Z,73.31
2024-04-18T09:15:38.872Z,73.02
2024-04-18T09:16:41.767Z,72.99
2024-04-18T09:17:44.467Z,72.73
2024-04-18T09:18:46.935Z,71.96
2024-04-18T09:19:49.642Z,71.57
2024-04-18T09:20:52.445Z,71.75
2024-04-18T09:21:55.797Z,71.26
2024-04-18T09:22:58.590Z,71.68
2024-04-18T09:24:02.249Z,71.53
2024-04-18T09:25:10.008Z,69.21
2024-04-18T09:26:12.652Z,70.37
2024-04-18T09:27:17.673Z,70.43
2024-04-18T09:28:21.365Z,70.66
2024-04-18T09:29:23.740Z,71.44
2024-04-18T09:30:26.901Z,71.21
2024-04-18T09:31:38.272Z,71.85
2024-04-18T09:32:46.222Z,71.63
2024-04-18T09:33:51.626Z,70.53
2024-04-18T09:34:56.979Z,70.27
2024-04-18T09:36:01.830Z,70.63
2024-04-18T09:37:09.483Z,70.67
2024-04-18T09:38:15.885Z,70.79
2024-04-18T09:39:29.894Z,70.75
2024-04-18T09:40:35.438Z,70.38
2024-04-18T09:41:40.849Z,70.34
2024-04-18T09:42:53.442Z,69.77
2024-04-18T09:44:02.672Z,70.67
2024-04-18T09:45:06.589Z,70.00
2024-04-18T09:46:12.212Z,69.91
2024-04-18T09:47:18.656Z,68.73
2024-04-18T09:48:22.800Z,69.18
2024-04-18T09:49:27.044Z,69.62
2024-04-18T09:50:31.558Z,69.55
2024-04-18T09:51:34.969Z,69.62
2024-04-18T09:52:39.992Z,69.34
2024-04-18T09:53:43.334Z,70.00
2024-04-18T09:54:46.189Z,69.71
2024-04-18T09:55:50.248Z,69.39
2024-04-18T09:56:55.857Z,68.97
2024-04-18T09:57:59.763Z,68.72
2024-04-18T09:59:02.604Z,67.48
2024-04-18T10:00:07.746Z,67.90
2024-04-18T10:01:15.898Z,65.52
2024-04-18T10:02:18.650Z,68.16
2024-04-18T10:03:21.930Z,66.32
2024-04-18T10:04:24.916Z,65.81
2024-04-18T10:05:28.738Z,66.41
2024-04-18T10:06:37.676Z,65.69
2024-04-18T10:07:42.227Z,66.12
2024-04-18T10:08:52.131Z,66.16
2024-04-18T10:09:56.141Z,66.66
2024-04-18T10:11:01.663Z,66.78
2024-04-18T10:12:05.836Z,67.23
2024-04-18T10:13:11.482Z,66.74
2024-04-18T10:14:13.837Z,66.67
2024-04-18T10:15:21.377Z,65.73
2024-04-18T10:16:24.085Z,66.12
2024-04-18T10:17:33.306Z,64.82
2024-04-18T10:18:37.676Z,64.62
2024-04-18T10:19:47.106Z,64.32
2024-04-18T10:20:50.576Z,65.12
2024-04-18T10:23:04.520Z,64.17
2024-04-18T10:24:07.542Z,65.36
2024-04-18T10:25:22.140Z,63.69
2024-04-18T10:26:25.202Z,64.24
2024-04-18T10:27:27.742Z,63.50
2024-04-18T10:28:32.093Z,63.30
2024-04-18T10:29:35.040Z,62.52
2024-04-18T10:30:41.762Z,60.05
2024-04-18T10:31:44.692Z,61.34
2024-04-18T10:32:49.850Z,61.87
2024-04-18T10:33:53.987Z,62.05
2024-04-18T10:34:57.385Z,61.25
2024-04-18T10:35:59.922Z,61.28
2024-04-18T10:37:08.145Z,60.15
2024-04-18T10:38:10.854Z,61.19
2024-04-18T10:39:30.543Z,58.30
2024-04-18T10:40:36.436Z,60.28
2024-04-18T10:41:48.928Z,58.59
2024-04-18T10:42:51.821Z,59.10
2024-04-18T10:43:56.132Z,59.02
2024-04-18T10:44:59.519Z,58.43
2024-04-18T10:46:02.530Z,57.82
2024-04-18T10:47:06.551Z,58.23
2024-04-18T10:48:10.072Z,57.73
2024-04-18T10:49:12.802Z,58.98
2024-04-18T10:50:16.852Z,58.93
2024-04-18T10:51:26.318Z,58.30
2024-04-18T10:52:30.037Z,58.98
2024-04-18T10:53:38.924Z,59.86
2024-04-18T10:54:41.960Z,60.02
2024-04-18T10:55:44.767Z,59.79
2024-04-18T10:56:47.275Z,59.92
2024-04-18T10:57:51.017Z,59.57
2024-04-18T10:58:53.353Z,58.88
2024-04-18T10:59:56.561Z,59.28
2024-04-18T11:01:01.201Z,58.57
2024-04-18T11:02:08.389Z,57.97
2024-04-18T11:03:12.223Z,57.78
2024-04-18T11:04:14.934Z,58.51
2024-04-18T11:05:17.659Z,57.90
2024-04-18T11:06:23.042Z,57.78
2024-04-18T11:07:25.958Z,56.85
2024-04-18T11:08:34.982Z,57.13
2024-04-18T11:09:41.287Z,57.66
2024-04-18T11:10:46.411Z,57.62
2024-04-18T11:11:50.403Z,55.62
2024-04-18T11:12:52.984Z,55.41
2024-04-18T11:13:57.763Z,53.57
2024-04-18T11:15:01.723Z,55.25
2024-04-18T11:16:04.770Z,56.55
2024-04-18T11:17:09.010Z,56.90
2024-04-18T11:18:12.025Z,56.78
2024-04-18T11:19:15.703Z,56.67
2024-04-18T11:20:21.326Z,55.59
2024-04-18T11:21:27.299Z,55.59
2024-04-18T11:22:29.913Z,55.99
2024-04-18T11:23:39.776Z,55.58
2024-04-18T11:24:49.626Z,55.34
2024-04-18T11:25:53.811Z,54.35
2024-04-18T11:26:57.845Z,54.86
2024-04-18T11:28:00.903Z,55.35
2024-04-18T11:29:03.279Z,55.38
2024-04-18T11:30:10.933Z,55.76
2024-04-18T11:31:13.477Z,56.35
2024-04-18T11:32:16.750Z,56.98
2024-04-18T11:33:22.597Z,57.76
2024-04-18T11:34:26.793Z,59.22
2024-04-18T11:35:29.748Z,59.76
2024-04-18T11:36:32.331Z,60.93
2024-04-18T11:37:40.900Z,61.37
2024-04-18T11:38:43.459Z,61.94
2024-04-18T11:39:46.222Z,62.35
2024-04-18T11:40:48.712Z,62.23
2024-04-18T11:41:52.101Z,62.08
2024-04-18T11:42:55.039Z,62.08
2024-04-18T11:43:57.922Z,61.97
2024-04-18T11:45:01.761Z,62.22
2024-04-18T11:46:04.834Z,62.58
2024-04-18T11:47:07.590Z,62.22
2024-04-18T11:48:10.270Z,61.79
2024-04-18T11:49:13.326Z,61.27
2024-04-18T11:50:16.359Z,60.86
2024-04-18T11:51:18.964Z,60.51
2024-04-18T11:52:22.121Z,60.56
2024-04-18T11:53:33.274Z,60.27
2024-04-18T11:54:36.338Z,59.71
2024-04-18T11:55:38.865Z,58.73
2024-04-18T11:57:00.018Z,58.46
2024-04-18T11:58:08.942Z,57.39
2024-04-18T11:59:11.796Z,57.15
2024-04-18T12:00:15.034Z,56.84
2024-04-18T12:01:36.855Z,56.36
2024-04-18T12:02:54.728Z,56.59
2024-04-18T12:03:57.720Z,56.48
2024-04-18T12:05:08.070Z,56.56
2024-04-18T12:06:24.123Z,56.02
2024-04-18T12:07:27.356Z,55.16
2024-04-18T12:08:30.865Z,56.27
2024-04-18T12:09:38.593Z,56.02
2024-04-18T12:10:41.499Z,56.84
2024-04-18T12:11:43.994Z,57.32
2024-04-18T12:12:47.020Z,57.57
2024-04-18T12:13:58.120Z,57.85
2024-04-18T12:15:01.044Z,59.16
2024-04-18T12:16:03.580Z,60.01
2024-04-18T12:17:07.088Z,59.97
2024-04-18T12:18:19.246Z,60.76
2024-04-18T12:19:26.196Z,61.88
2024-04-18T12:20:28.631Z,63.01
2024-04-18T12:21:31.988Z,63.57
2024-04-18T12:22:34.804Z,65.23
2024-04-18T12:23:50.055Z,66.11
2024-04-18T12:25:10.219Z,65.85
2024-04-18T12:26:12.873Z,67.13
2024-04-18T12:27:21.602Z,67.67
2024-04-18T12:28:30.797Z,68.17
2024-04-18T12:29:33.081Z,68.57
2024-04-18T12:30:36.238Z,69.02
2024-04-18T12:31:55.651Z,69.81
2024-04-18T12:32:58.010Z,69.01
2024-04-18T12:34:01.345Z,68.38
2024-04-18T12:35:03.971Z,68.76
2024-04-18T12:36:11.144Z,68.49
2024-04-18T12:37:13.601Z,68.21
2024-04-18T12:38:16.412Z,68.24
2024-04-18T12:39:19.225Z,67.85
2024-04-18T12:40:22.434Z,68.08
2024-04-18T12:41:45.348Z,68.36
2024-04-18T12:42:52.078Z,68.81
2024-04-18T12:43:54.536Z,68.72
2024-04-18T12:45:16.359Z,68.42
2024-04-18T12:46:23.623Z,68.48
2024-04-18T12:47:27.288Z,68.21
2024-04-18T12:48:30.001Z,68.59
2024-04-18T12:49:33.646Z,68.35
2024-04-18T12:50:37.685Z,67.88
2024-04-18T12:51:40.292Z,66.62
2024-04-18T12:52:44.936Z,66.05
2024-04-18T12:53:47.844Z,66.04
2024-04-18T12:54:50.850Z,65.52
2024-04-18T12:56:00.405Z,65.97
2024-04-18T12:57:03.655Z,65.03
2024-04-18T12:58:07.019Z,65.11
2024-04-18T12:59:10.299Z,65.00
2024-04-18T13:00:20.967Z,64.61
2024-04-18T13:01:32.880Z,64.69
2024-04-18T13:02:55.177Z,64.06
2024-04-18T13:04:18.081Z,64.15
2024-04-18T13:05:23.287Z,64.16
2024-04-18T13:06:39.981Z,64.66
2024-04-18T13:08:01.157Z,64.64
2024-04-18T13:09:05.435Z,65.00
2024-04-18T13:10:20.819Z,64.79
2024-04-18T13:11:23.269Z,65.36
2024-04-18T13:12:38.421Z,65.34
2024-04-18T13:14:01.931Z,65.66
2024-04-18T13:15:04.863Z,65.64
2024-04-18T13:16:07.619Z,65.46
2024-04-18T13:17:12.096Z,65.67
2024-04-18T13:18:23.516Z,65.54
2024-04-18T13:19:34.895Z,65.96
2024-04-18T13:20:49.792Z,65.31
2024-04-18T13:21:52.519Z,64.99
2024-04-18T13:22:55.221Z,65.28
2024-04-18T13:23:57.945Z,65.71
2024-04-18T13:25:00.767Z,65.59
2024-04-18T13:26:05.826Z,65.33
2024-04-18T13:27:08.495Z,65.01
2024-04-18T13:28:28.219Z,65.35
2024-04-18T13:29:50.882Z,64.92
2024-04-18T13:31:12.834Z,64.29
2024-04-18T13:32:22.460Z,63.83
2024-04-18T13:33:26.142Z,63.46
2024-04-18T13:34:29.216Z,63.41
2024-04-18T13:35:32.636Z,64.09
2024-04-18T13:36:36.241Z,63.16
2024-04-18T13:37:44.999Z,63.27
2024-04-18T13:38:53.423Z,63.50
2024-04-18T13:40:08.459Z,63.62
2024-04-18T13:41:31.767Z,63.29
2024-04-18T13:42:50.843Z,63.45
2024-04-18T13:44:05.951Z,62.67
2024-04-18T13:45:17.361Z,63.06
2024-04-18T13:46:29.086Z,62.78
2024-04-18T13:47:36.079Z,62.70
2024-04-18T13:48:40.361Z,63.34
2024-04-18T13:49:42.882Z,62.92
2024-04-18T13:50:48.112Z,63.10
2024-04-18T13:51:50.983Z,63.25
2024-04-18T13:53:08.802Z,63.39
2024-04-18T13:54:21.077Z,63.03
2024-04-18T13:55:29.144Z,62.96
2024-04-18T13:56:32.313Z,62.68
2024-04-18T13:57:43.491Z,63.21
2024-04-18T13:58:55.586Z,63.52
2024-04-18T14:00:03.148Z,63.61
2024-04-18T14:01:24.597Z,63.36
2024-04-18T14:02:37.703Z,63.27
2024-04-18T14:03:52.891Z,63.86
2024-04-18T14:05:21.077Z,63.96
2024-04-18T14:06:40.061Z,63.90
2024-04-18T14:07:52.319Z,63.18
2024-04-18T14:09:03.959Z,63.23
2024-04-18T14:10:19.756Z,63.77
2024-04-18T14:11:40.991Z,64.09
2024-04-18T14:13:03.786Z,64.30
2024-04-18T14:14:23.423Z,64.79
2024-04-18T14:16:04.800Z,64.22
2024-04-18T14:17:46.656Z,64.72
2024-04-18T14:18:52.908Z,64.82
2024-04-18T14:20:12.475Z,65.34
2024-04-18T14:21:25.011Z,64.79
2024-04-18T14:22:27.604Z,64.27
2024-04-18T14:23:29.902Z,64.90
2024-04-18T14:24:32.760Z,64.97
2024-04-18T14:25:35.636Z,64.48
2024-04-18T14:26:50.511Z,64.74
2024-04-18T14:27:58.768Z,64.66
2024-04-18T14:29:13.410Z,64.25
2024-04-18T14:30:32.668Z,64.52
2024-04-18T14:31:47.851Z,62.29
2024-04-18T14:33:03.993Z,63.32
2024-04-18T14:34:07.086Z,63.00
2024-04-18T14:35:09.869Z,61.98
2024-04-18T14:36:12.994Z,62.39
2024-04-18T14:37:18.921Z,61.35
2024-04-18T14:38:26.129Z,61.82
2024-04-18T14:39:28.788Z,61.81
2024-04-18T14:40:49.865Z,60.94
2024-04-18T14:41:56.832Z,61.23
2024-04-18T14:42:59.365Z,59.94
2024-04-18T14:44:02.158Z,60.42
2024-04-18T14:45:06.471Z,60.29
2024-04-18T14:46:09.034Z,59.25
2024-04-18T14:47:21.120Z,59.15